createdAt,value
2023-03-03T00:00:00.346Z,35.80
2023-03-03T00:05:45.681Z,44.50
2023-03-03T00:10:50.215Z,47.90
2023-03-03T00:15:55.318Z,43.30
2023-03-03T00:21:03.586Z,36.30
2023-03-03T00:26:19.782Z,45.20
2023-03-03T00:31:31.942Z,34.60
2023-03-03T00:36:38.423Z,40.30
2023-03-03T00:41:42.953Z,33.40
2023-03-03T00:46:47.555Z,32.40
2023-03-03T00:51:52.504Z,36.70
2023-03-03T00:56:56.786Z,33.70
2023-03-03T01:02:01.075Z,35.50
2023-03-03T01:07:04.741Z,36.80
2023-03-03T01:12:08.594Z,31.70
2023-03-03T01:17:14.339Z,39.30
2023-03-03T01:22:18.065Z,40.70
2023-03-03T01:27:22.618Z,41.50
2023-03-03T01:32:26.862Z,38.90
2023-03-03T01:37:33.611Z,40.80
2023-03-03T01:42:37.319Z,36.70
2023-03-03T01:47:45.482Z,39.50
2023-03-03T01:52:50.987Z,41.80
2023-03-03T01:58:28.306Z,40.40
2023-03-03T02:03:34.195Z,35.90
2023-03-03T02:08:46.024Z,33.50
2023-03-03T02:13:49.729Z,33.50
2023-03-03T02:18:53.824Z,31.90
2023-03-03T02:24:28.822Z,32.90
2023-03-03T02:29:32.965Z,37.20
2023-03-03T02:34:53.715Z,24.30
2023-03-03T02:39:57.555Z,36.90
2023-03-03T02:45:01.654Z,35.30
2023-03-03T02:50:06.964Z,40.00
2023-03-03T02:55:11.166Z,38.70
2023-03-03T03:00:17.056Z,35.50
2023-03-03T03:05:21.729Z,37.80
2023-03-03T03:10:25.798Z,33.00
2023-03-03T03:15:30.209Z,37.10
2023-03-03T03:20:43.185Z,37.70
2023-03-03T03:25:47.224Z,37.50
2023-03-03T03:30:57.859Z,37.60
2023-03-03T03:36:03.929Z,31.80
2023-03-03T03:41:08.539Z,40.40
2023-03-03T03:46:14.441Z,38.30
2023-03-03T03:51:18.539Z,34.00
2023-03-03T03:56:22.814Z,29.60
2023-03-03T04:01:28.589Z,36.30
2023-03-03T04:06:36.877Z,31.60
2023-03-03T04:11:41.745Z,27.70
2023-03-03T04:16:46.940Z,25.60
2023-03-03T04:21:52.682Z,20.40
2023-03-03T04:26:56.566Z,25.40
2023-03-03T04:32:00.593Z,27.50
2023-03-03T04:37:04.982Z,23.60
2023-03-03T04:42:09.402Z,20.30
2023-03-03T04:47:13.654Z,20.70
2023-03-03T04:52:18.167Z,19.90
2023-03-03T04:57:23.587Z,19.10
2023-03-03T05:02:30.573Z,17.80
2023-03-03T05:07:37.535Z,18.30
2023-03-03T05:12:41.220Z,19.40
2023-03-03T05:17:47.109Z,18.40
2023-03-03T05:22:52.601Z,18.30
2023-03-03T05:27:56.935Z,20.70
2023-03-03T05:33:00.999Z,20.80
2023-03-03T05:38:05.559Z,21.90
2023-03-03T05:43:09.385Z,22.30
2023-03-03T05:48:13.084Z,18.70
2023-03-03T05:53:16.960Z,17.90
2023-03-03T05:58:20.693Z,16.60
2023-03-03T06:03:24.373Z,16.40
2023-03-03T06:08:29.733Z,15.80
2023-03-03T06:13:33.725Z,12.40
2023-03-03T06:18:38.498Z,14.00
2023-03-03T06:23:42.255Z,14.50
2023-03-03T06:28:46.068Z,16.50
2023-03-03T06:33:49.691Z,14.50
2023-03-03T06:38:53.631Z,13.90
2023-03-03T06:43:58.759Z,16.90
2023-03-03T06:49:02.451Z,15.30
2023-03-03T06:54:18.766Z,13.00
2023-03-03T06:59:22.822Z,13.10
2023-03-03T07:04:32.014Z,10.50
2023-03-03T07:09:35.907Z,15.90
2023-03-03T07:14:48.063Z,14.40
2023-03-03T07:19:52.868Z,15.60
2023-03-03T07:25:03.226Z,18.90
2023-03-03T07:30:25.798Z,17.00
2023-03-03T07:35:41.809Z,14.20
2023-03-03T07:40:52.040Z,14.10
2023-03-03T07:46:11.242Z,15.90
2023-03-03T07:51:42.307Z,14.90
2023-03-03T07:56:47.350Z,16.10
2023-03-03T08:01:55.540Z,15.20
2023-03-03T08:07:02.716Z,15.80
2023-03-03T08:12:25.562Z,13.00
2023-03-03T08:17:37.365Z,12.00
2023-03-03T08:22:41.627Z,14.40
2023-03-03T08:27:45.483Z,15.20
2023-03-03T08:32:49.645Z,17.50
2023-03-03T08:37:53.423Z,19.60
2023-03-03T08:42:58.813Z,19.90
2023-03-03T08:48:05.622Z,20.60
2023-03-03T08:53:11.492Z,19.40
2023-03-03T08:58:16.957Z,19.30
2023-03-03T09:03:21.357Z,21.20
2023-03-03T09:08:25.839Z,19.80
2023-03-03T09:13:31.844Z,22.10
2023-03-03T09:18:38.314Z,19.90
2023-03-03T09:23:54.631Z,21.80
2023-03-03T09:29:10.888Z,22.50
2023-03-03T09:34:44.857Z,20.30
2023-03-03T09:39:55.084Z,23.20
2023-03-03T09:45:20.559Z,18.50
2023-03-03T09:50:46.216Z,20.60
2023-03-03T09:56:16.987Z,14.60
2023-03-03T10:01:33.857Z,17.80
2023-03-03T10:06:55.594Z,18.80
2023-03-03T10:12:22.932Z,18.00
2023-03-03T10:17:33.340Z,21.00
2023-03-03T10:23:03.188Z,18.20
2023-03-03T10:28:33.900Z,18.50
2023-03-03T10:34:04.900Z,18.70
2023-03-03T10:39:21.306Z,19.40
2023-03-03T10:44:49.344Z,19.60
2023-03-03T10:50:18.227Z,19.00
2023-03-03T10:55:45.509Z,21.90
2023-03-03T11:00:57.257Z,22.80
2023-03-03T11:06:24.763Z,21.10
2023-03-03T11:12:00.835Z,20.30
2023-03-03T11:17:11.466Z,20.40
2023-03-03T11:22:35.246Z,18.40
2023-03-03T11:28:04.097Z,16.80
2023-03-03T11:33:13.014Z,16.90
2023-03-03T11:38:32.900Z,18.20
2023-03-03T11:43:50.833Z,16.90
2023-03-03T11:55:31.214Z,16.40
2023-03-03T12:00:36.509Z,16.40
2023-03-03T12:06:25.791Z,16.10
2023-03-03T12:11:49.031Z,13.80
2023-03-03T12:16:58.868Z,14.90
2023-03-03T12:22:12.492Z,13.70
2023-03-03T12:27:57.865Z,17.40
2023-03-03T12:33:54.438Z,13.20
2023-03-03T12:39:34.995Z,13.30
2023-03-03T12:44:51.839Z,11.10
2023-03-03T12:50:07.422Z,10.20
2023-03-03T12:56:10.597Z,14.40
2023-03-03T13:01:28.686Z,11.90
2023-03-03T13:06:38.026Z,11.80
2023-03-03T13:12:09.493Z,11.90
2023-03-03T13:17:35.895Z,12.10
2023-03-03T13:23:01.075Z,13.30
2023-03-03T13:28:31.728Z,12.80
2023-03-03T13:33:36.477Z,11.30
2023-03-03T13:38:48.527Z,13.20
2023-03-03T13:44:11.979Z,13.70
2023-03-03T13:49:21.716Z,13.40
2023-03-03T13:54:49.720Z,12.50
2023-03-03T14:00:13.689Z,13.70
2023-03-03T14:05:45.479Z,12.30
2023-03-03T14:11:15.224Z,14.70
2023-03-03T14:16:55.862Z,16.10
2023-03-03T14:22:15.185Z,13.20
2023-03-03T14:27:27.861Z,12.00
2023-03-03T14:32:45.185Z,13.10
2023-03-03T14:37:51.049Z,11.70
2023-03-03T14:42:57.142Z,11.70
2023-03-03T14:48:11.388Z,13.40
2023-03-03T14:53:24.254Z,14.80
2023-03-03T14:58:45.184Z,12.30
2023-03-03T15:04:04.220Z,12.50
2023-03-03T15:09:37.492Z,11.40
2023-03-03T15:14:50.557Z,12.20
2023-03-03T15:19:58.323Z,11.80
2023-03-03T15:25:24.141Z,11.40
2023-03-03T15:30:37.036Z,13.50
2023-03-03T15:36:00.775Z,14.70
2023-03-03T15:41:09.590Z,14.90
2023-03-03T15:46:24.693Z,12.10
2023-03-03T15:51:37.655Z,15.20
2023-03-03T15:56:53.352Z,14.10
2023-03-03T16:02:24.617Z,16.00
2023-03-03T16:07:42.443Z,16.90
2023-03-03T16:13:36.639Z,16.80
2023-03-03T16:19:14.254Z,18.30
2023-03-03T16:25:11.652Z,19.30
2023-03-03T16:30:43.096Z,18.90
2023-03-03T16:36:21.186Z,18.80
2023-03-03T16:41:49.283Z,18.20
2023-03-03T16:47:28.193Z,17.30
2023-03-03T16:52:50.509Z,18.80
2023-03-03T16:58:01.548Z,17.70
2023-03-03T17:03:52.313Z,18.50
2023-03-03T17:09:32.594Z,17.30
2023-03-03T17:14:39.362Z,14.80
2023-03-03T17:19:50.821Z,13.00
2023-03-03T17:25:19.078Z,13.60
2023-03-03T17:30:52.585Z,12.80
2023-03-03T17:42:46.013Z,13.40
2023-03-03T17:47:57.751Z,10.50
2023-03-03T17:53:03.830Z,14.10
2023-03-03T17:58:28.865Z,12.90
2023-03-03T18:04:10.307Z,11.70
2023-03-03T18:09:33.421Z,14.30
2023-03-03T18:15:08.932Z,12.90
2023-03-03T18:20:43.882Z,13.30
2023-03-03T18:26:05.014Z,14.60
2023-03-03T18:31:26.710Z,15.40
2023-03-03T18:36:33.247Z,14.20
2023-03-03T18:42:19.473Z,16.50
2023-03-03T18:48:08.121Z,15.60
2023-03-03T18:53:34.745Z,16.20
2023-03-03T18:58:42.201Z,19.10
2023-03-03T19:03:48.115Z,16.60
2023-03-03T19:08:57.891Z,18.50
2023-03-03T19:14:26.952Z,17.60
2023-03-03T19:19:35.332Z,18.90
2023-03-03T19:24:41.405Z,17.80
2023-03-03T19:29:47.391Z,18.00
2023-03-03T19:35:10.443Z,18.80
2023-03-03T19:40:34.144Z,16.60
2023-03-03T19:46:04.053Z,16.60
2023-03-03T19:51:29.676Z,20.40
2023-03-03T19:56:56.813Z,20.20
2023-03-03T20:02:34.289Z,21.10
2023-03-03T20:07:46.666Z,21.10
2023-03-03T20:13:08.497Z,20.60
2023-03-03T20:18:45.600Z,18.90
2023-03-03T20:24:07.263Z,19.50
2023-03-03T20:29:22.939Z,18.70
2023-03-03T20:35:06.394Z,17.20
2023-03-03T20:40:28.401Z,17.50
2023-03-03T20:45:34.077Z,17.70
2023-03-03T20:51:03.596Z,16.90
2023-03-03T20:56:23.776Z,17.20
2023-03-03T21:01:37.577Z,18.00
2023-03-03T21:06:43.167Z,19.30
2023-03-03T21:11:50.286Z,18.60
2023-03-03T21:17:07.503Z,17.40
2023-03-03T21:22:14.257Z,19.70
2023-03-03T21:27:27.798Z,19.60
2023-03-03T21:32:48.505Z,22.10
2023-03-03T21:37:55.324Z,20.50
2023-03-03T21:43:00.228Z,17.40
2023-03-03T21:48:05.995Z,17.40
2023-03-03T21:53:11.780Z,22.20
2023-03-03T21:58:16.968Z,22.00
2023-03-03T22:03:21.218Z,23.30
2023-03-03T22:08:25.549Z,22.70
2023-03-03T22:13:29.846Z,22.90
2023-03-03T22:18:34.124Z,26.60
2023-03-03T22:23:38.002Z,27.60
2023-03-03T22:28:44.243Z,25.60
2023-03-03T22:33:49.064Z,28.10
2023-03-03T22:38:53.566Z,28.40
2023-03-03T22:43:57.436Z,25.40
2023-03-03T22:49:01.386Z,25.70
2023-03-03T22:54:05.715Z,24.70
2023-03-03T22:59:10.463Z,26.20
2023-03-03T23:04:14.624Z,28.60
2023-03-03T23:09:18.345Z,25.60
2023-03-03T23:14:24.319Z,27.30
2023-03-03T23:19:28.582Z,25.40
2023-03-03T23:24:33.505Z,27.80
2023-03-03T23:29:38.292Z,27.40
2023-03-03T23:34:42.761Z,26.00
2023-03-03T23:39:46.734Z,28.00
2023-03-03T23:44:51.204Z,25.70
2023-03-03T23:49:56.448Z,28.80
2023-03-03T23:55:00.978Z,24.20
